Weather reports worldwide

Advertisment
Dourbes, Belgium (6455): temperature & dewpoint: 18.10.2020 00:00:00 - 24.10.2020 00:00:00 (CEST)Dourbes, Belgium (6455): wind speed & gusts: 18.10.2020 00:00:00 - 24.10.2020 00:00:00 (CEST)Dourbes, Belgium (6455): wind direction: 18.10.2020 00:00:00 - 24.10.2020 00:00:00 (CEST)Dourbes, Belgium (6455): reduced air pressure: 18.10.2020 00:00:00 - 24.10.2020 00:00:00 (CEST)Dourbes, Belgium (6455): sunshine duration: 18.10.2020 00:00:00 - 24.10.2020 00:00:00 (CEST)Dourbes, Belgium (6455): precipitation: 18.10.2020 00:00:00 - 24.10.2020 00:00:00 (CEST)
Date & Time tt [°C] td [°C] ff [km/h] ff [kn] fx [km/h] fx [kn] dd ppp [hPa] sd [min] rr [mm]
24.10.2020 00:00:00 - - - - - - - - - -
23.10.2020 23:00:00 12,7 11,7 10 5 22 12 SSW 1013,0 0 0,0
23.10.2020 22:00:00 12,5 12,0 14 7 21 11 S 1012,3 0 0,0
23.10.2020 21:00:00 11,9 11,7 8 4 16 9 SSW 1012,1 0 0,0
23.10.2020 20:00:00 12,2 11,7 7 4 15 8 SW 1011,8 0 0,0
23.10.2020 19:00:00 13,1 12,3 6 4 16 9 SW 1011,6 0 0,0
23.10.2020 18:00:00 15,0 13,0 10 5 26 14 SSW 1011,1 54 0,0
23.10.2020 17:00:00 15,7 13,3 11 6 25 13 WSW 1010,6 39 0,0
23.10.2020 16:00:00 - - - - - - - - - -
23.10.2020 15:00:00 15,0 14,1 11 6 21 11 SSW 1010,3 5 0,0
23.10.2020 14:00:00 14,5 14,4 7 4 16 8 SSW 1010,6 0 0,0
23.10.2020 13:00:00 14,2 14,2 8 4 17 9 SSW 1010,9 1 0,0
23.10.2020 12:00:00 14,5 14,5 8 4 15 8 S 1010,7 0 0,2
23.10.2020 11:00:00 14,0 14,0 9 5 15 8 SSW 1010,7 0 0,0
23.10.2020 10:00:00 13,5 13,5 8 4 14 8 S 1010,8 0 0,0
23.10.2020 09:00:00 13,2 13,2 4 2 16 9 W 1010,7 0 0,0
23.10.2020 08:00:00 13,3 13,3 11 6 18 10 S 1010,6 0 0,7
23.10.2020 07:00:00 13,4 13,4 7 4 13 7 S 1010,8 0 1,6
23.10.2020 06:00:00 13,7 13,7 9 5 16 9 S 1010,9 0 1,2
23.10.2020 05:00:00 13,7 13,7 7 4 13 7 S 1011,2 0 0,0
23.10.2020 04:00:00 13,7 13,7 5 3 13 7 SSW 1011,6 0 0,0
23.10.2020 03:00:00 13,9 13,9 9 5 13 7 SSE 1012,2 0 4,8
23.10.2020 02:00:00 14,0 13,9 4 2 9 5 SSW 1012,4 0 1,0
23.10.2020 01:00:00 13,6 13,4 5 3 11 6 S 1012,5 0 0,0
23.10.2020 00:00:00 - - - - - - - - - -
22.10.2020 23:00:00 14,0 13,6 6 3 19 10 SW 1012,6 0 0,0
22.10.2020 22:00:00 14,7 14,5 9 5 16 8 SSW 1012,2 0 0,0
22.10.2020 21:00:00 14,8 14,3 6 3 13 7 SSW 1012,1 0 0,4
22.10.2020 20:00:00 15,6 14,3 7 4 16 9 WSW 1011,9 0 0,0
22.10.2020 19:00:00 15,7 13,7 7 4 19 11 SSW 1011,5 0 0,0
22.10.2020 18:00:00 17,2 14,3 10 5 25 14 SSW 1011,0 0 0,0
22.10.2020 17:00:00 17,9 14,5 13 7 33 18 SSW 1011,0 24 0,0
22.10.2020 16:00:00 18,9 14,4 16 9 32 17 SSW 1010,9 55 0,0
22.10.2020 15:00:00 - - - - - - - - - -
22.10.2020 14:00:00 17,6 14,1 18 10 35 19 SSW 1011,5 33 0,0
22.10.2020 13:00:00 16,8 14,2 16 9 30 16 S 1011,8 8 0,0
22.10.2020 12:00:00 16,2 13,9 16 8 29 16 S 1012,1 10 0,0
22.10.2020 11:00:00 15,0 13,7 16 8 26 14 S 1012,2 3 0,0
22.10.2020 10:00:00 14,5 13,5 14 8 29 16 S 1011,9 0 0,0
22.10.2020 09:00:00 14,2 13,2 18 10 36 19 S 1011,4 0 0,0
22.10.2020 08:00:00 14,0 13,4 14 8 29 16 S 1010,6 0 0,0
22.10.2020 07:00:00 14,5 13,6 16 8 34 19 S 1010,6 0 0,0
22.10.2020 06:00:00 14,6 13,3 18 10 30 16 S 1010,2 0 0,0
22.10.2020 05:00:00 14,3 13,2 18 10 27 15 SSW 1010,1 0 0,0
22.10.2020 04:00:00 14,2 13,0 13 7 21 12 S 1010,3 0 0,0
22.10.2020 03:00:00 14,1 12,8 12 6 23 13 S 1010,1 0 0,0
22.10.2020 02:00:00 14,4 12,4 14 8 24 13 S 1009,7 0 0,0
22.10.2020 01:00:00 15,3 12,1 16 9 31 17 S 1008,9 0 0,0
22.10.2020 00:00:00 15,7 12,2 17 9 39 21 SSW 1008,4 0 0,0
21.10.2020 23:00:00 15,8 12,7 19 11 37 20 SSW 1007,9 0 0,0
21.10.2020 22:00:00 16,3 13,2 19 11 39 21 SSW 1007,0 0 0,0
21.10.2020 21:00:00 17,0 13,4 23 12 41 22 S 1006,2 0 0,0
21.10.2020 20:00:00 17,3 13,2 25 14 50 27 S 1005,1 0 0,0
21.10.2020 19:00:00 17,5 13,3 24 13 49 26 S 1004,1 0 0,0
21.10.2020 18:00:00 18,4 13,2 29 16 56 31 S 1003,2 58 0,0
21.10.2020 17:00:00 19,5 13,3 29 16 67 36 SSW 1002,3 57 0,0
21.10.2020 16:00:00 19,4 12,8 35 19 75 40 S 1001,2 53 0,0
21.10.2020 15:00:00 19,3 12,6 34 18 69 37 S 1001,0 56 0,0
21.10.2020 14:00:00 18,8 12,1 32 18 74 40 S 1000,6 60 0,0
21.10.2020 13:00:00 - - - - - - - - - -
21.10.2020 12:00:00 15,4 11,1 34 19 62 34 S 1000,9 32 0,0
21.10.2020 11:00:00 13,0 10,7 29 16 54 29 SSE 1001,6 0 0,0
21.10.2020 10:00:00 12,3 10,8 24 13 46 25 SSE 1002,0 0 0,2
21.10.2020 09:00:00 11,8 10,5 24 13 44 24 SSE 1002,7 0 0,3
21.10.2020 08:00:00 12,1 10,7 22 12 46 25 SSE 1002,5 0 0,0
21.10.2020 07:00:00 11,7 11,1 17 9 38 21 SSE 1002,9 0 0,3
21.10.2020 06:00:00 - - - - - - - - - -
21.10.2020 05:00:00 11,3 10,7 15 8 36 20 SSE 1003,7 0 0,6
21.10.2020 04:00:00 11,6 11,0 11 6 25 13 SSE 1004,9 0 0,3
21.10.2020 03:00:00 11,9 11,5 11 6 25 13 SSE 1005,6 0 0,1
21.10.2020 02:00:00 12,2 11,9 11 6 25 13 SSE 1006,0 0 0,2
21.10.2020 01:00:00 12,5 12,3 10 6 21 11 SSE 1006,6 0 0,4
21.10.2020 00:00:00 12,6 12,4 6 4 18 10 SSE 1007,3 0 0,3
20.10.2020 23:00:00 12,7 12,6 9 5 31 17 S 1007,6 0 0,4
20.10.2020 22:00:00 12,6 12,5 14 8 32 18 S 1007,8 0 0,5
20.10.2020 21:00:00 12,8 12,5 16 9 34 18 S 1008,3 0 0,2
20.10.2020 20:00:00 12,8 12,7 18 10 29 16 S 1008,6 0 0,1
20.10.2020 19:00:00 12,8 12,6 14 8 29 16 S 1008,9 0 0,4
20.10.2020 18:00:00 13,0 12,7 14 8 33 18 S 1008,8 0 0,5
20.10.2020 17:00:00 13,5 12,7 18 10 36 20 S 1009,2 0 0,1
20.10.2020 16:00:00 13,7 12,6 18 10 42 23 S 1009,5 0 0,1
20.10.2020 15:00:00 13,1 11,5 21 11 45 24 S 1009,6 0 0,0
20.10.2020 14:00:00 - - - - - - - - - -
20.10.2020 13:00:00 12,9 9,9 20 11 45 25 S 1009,5 0 0,0
20.10.2020 12:00:00 12,3 9,6 22 12 41 22 S 1009,5 0 0,0
20.10.2020 11:00:00 11,2 9,1 19 11 43 23 SSE 1009,4 0 0,0
20.10.2020 10:00:00 11,5 8,2 18 10 33 18 S 1009,7 0 0,0
20.10.2020 09:00:00 11,0 7,7 15 8 41 22 S 1009,3 0 0,0
20.10.2020 08:00:00 10,5 7,5 22 12 41 22 S 1008,9 0 0,0
20.10.2020 07:00:00 10,4 7,1 20 11 44 24 SSE 1009,1 0 0,0
20.10.2020 06:00:00 10,2 6,8 14 8 34 18 SSE 1009,6 0 0,0
20.10.2020 05:00:00 10,1 6,4 9 5 24 13 S 1010,0 0 0,0
20.10.2020 04:00:00 10,1 6,0 16 9 31 17 SE 1010,7 0 0,0
20.10.2020 03:00:00 10,2 5,5 14 8 31 17 SSE 1011,3 0 0,0
20.10.2020 02:00:00 10,0 4,9 11 6 22 12 SE 1012,2 0 0,0
20.10.2020 01:00:00 10,5 4,9 13 7 31 17 SE 1012,4 0 0,0
20.10.2020 00:00:00 10,2 4,1 14 8 35 19 SE 1012,6 0 0,0
19.10.2020 23:00:00 10,5 3,5 19 11 32 18 SE 1013,6 0 0,0
19.10.2020 22:00:00 10,2 4,0 15 8 31 17 SE 1014,2 0 0,0
19.10.2020 21:00:00 9,4 5,3 11 6 22 12 ESE 1015,6 0 0,0
19.10.2020 20:00:00 9,4 6,1 7 4 18 10 E 1016,6 0 0,0
19.10.2020 19:00:00 10,5 6,5 9 5 17 9 ESE 1016,8 0 0,0
19.10.2020 18:00:00 11,5 6,8 10 5 21 11 SSE 1017,4 12 0,0
19.10.2020 17:00:00 12,5 6,7 10 5 23 12 S 1018,0 60 0,0
19.10.2020 16:00:00 12,1 5,5 15 8 26 14 SSE 1018,9 56 0,0
19.10.2020 15:00:00 13,4 6,7 13 7 25 13 S 1019,5 60 0,0
19.10.2020 14:00:00 12,3 8,0 7 4 19 10 S 1020,6 60 0,0
19.10.2020 13:00:00 11,8 8,6 10 5 20 11 S 1021,1 60 0,0
19.10.2020 12:00:00 10,0 9,2 7 4 14 8 SSE 1021,6 60 0,0
19.10.2020 11:00:00 7,4 7,4 4 2 9 5 SE 1022,5 3 0,0
19.10.2020 10:00:00 6,1 6,1 4 2 12 6 E 1022,7 0 0,0
19.10.2020 09:00:00 5,1 5,1 6 4 14 8 SSE 1022,5 0 0,0
19.10.2020 08:00:00 4,8 4,8 4 2 8 5 ESE 1022,2 0 0,0
19.10.2020 07:00:00 5,9 5,9 5 3 8 4 E 1022,2 0 0,0
19.10.2020 06:00:00 6,2 6,2 4 2 8 4 S 1022,6 0 0,0
19.10.2020 05:00:00 6,7 6,7 4 2 6 3 NE 1022,5 0 0,0
19.10.2020 04:00:00 7,5 7,5 4 2 4 2 SE 1023,0 0 0,0
19.10.2020 03:00:00 7,4 7,4 0 0 4 2 N 1023,4 0 0,0
19.10.2020 02:00:00 7,6 7,6 4 2 5 3 S 1023,3 0 0,0
19.10.2020 01:00:00 7,7 7,7 4 2 4 2 SSW 1023,5 0 0,0
19.10.2020 00:00:00 7,8 7,8 4 2 4 2 SW 1023,4 0 0,0
18.10.2020 23:00:00 7,9 7,9 4 2 5 3 W 1023,3 0 0,0
18.10.2020 22:00:00 8,1 8,0 4 2 4 2 SW 1023,1 0 0,0
18.10.2020 21:00:00 8,2 8,0 4 2 6 3 S 1023,0 0 0,0
18.10.2020 20:00:00 8,4 8,0 0 0 4 2 N 1023,1 0 0,0
18.10.2020 19:00:00 8,6 8,1 4 2 5 3 SSE 1022,7 0 0,0
18.10.2020 18:00:00 9,0 8,2 4 2 5 3 SSE 1022,4 0 0,0
18.10.2020 17:00:00 9,3 8,3 4 2 5 3 SSW 1022,3 0 0,0
18.10.2020 16:00:00 9,1 7,5 4 2 13 7 WNW 1022,6 0 0,1
18.10.2020 15:00:00 10,8 8,4 5 3 13 7 SSW 1022,7 10 0,0
18.10.2020 14:00:00 9,9 9,2 4 2 13 7 SW 1023,1 0 0,0
18.10.2020 13:00:00 9,3 9,0 5 3 8 5 WSW 1023,5 0 0,3
18.10.2020 12:00:00 8,9 8,3 4 2 7 4 W 1023,5 0 0,0
18.10.2020 11:00:00 7,7 7,3 4 2 5 3 SSW 1023,4 1 0,2
18.10.2020 10:00:00 6,4 6,4 0 0 5 3 N 1023,4 0 0,2
18.10.2020 09:00:00 - - - - - - - - - -
18.10.2020 08:00:00 5,5 5,5 4 2 4 2 N 1022,5 0 0,0
18.10.2020 07:00:00 5,3 5,3 0 0 4 2 N 1022,4 0 0,0
18.10.2020 06:00:00 5,3 5,3 0 0 4 2 N 1022,5 0 0,0
18.10.2020 05:00:00 5,3 5,2 0 0 4 2 N 1022,6 0 0,0
18.10.2020 04:00:00 5,3 5,2 4 2 5 3 WNW 1022,5 0 0,0
18.10.2020 03:00:00 5,2 5,0 4 2 4 2 SSW 1022,5 0 0,0
18.10.2020 02:00:00 5,3 5,0 0 0 3 2 N 1022,3 0 0,0
18.10.2020 01:00:00 5,4 5,1 0 0 4 2 N 1022,2 0 0,0
18.10.2020 00:00:00 5,5 5,0 0 0 4 2 N 1022,0 0 0,0

tt = temperature
td = dewpoint
ff = wind speed
fx = gusts
dd = wind direction
ppp = reduced air pressure
sd = sunshine duration
rr = precipitation

Next stations